Accueil
METAR-TAF:

METAR-TAF

Aéroports :

Marham, Angleterre

latitude: 52-39N, longitude: 000-34E, altitude: 23 m

Observation

Le bulletin a été fait il y a 20 minutes, à 14:50 UTC
Vent 18 kt de ouest/nord-ouest
Température 10°C
Humidité 62%
Pression 1026 hPa
Visibilité 10 km ou plus
Quelques nuages à une hauteur de 3500 ft

METAR: EGYM 271450Z 30018KT 9999 FEW035 10/03 Q1026 BLU NOSIG RMK BLU BLU

Heure: 15:10 (15:10 UTC)

Prévision

Le bulletin a été fait il y a 1 heure et 36 minutes, à 13:34 UTC
Prévision valable du 27 à 15 UTC au 27 à 21 UTC
Vent 12 kt de ouest/nord-ouest
Visibilité 10 km ou plus
Nuages épars à une hauteur de 3000 ft
Temporairement
du 27 à 15 UTC au 27 à 16 UTC
Vent 15 kt de ouest/nord-ouest avec des rafales jusqu'à 25 kt

TAF: EGYM 271334Z 2715/2721 29012KT 9999 SCT030 TEMPO 2715/2716 29015G25KT

Observations et prévisions météorologiques de plus de 4000 aéroports (messages METAR et TAF).

Les stations disponibles sont représentées par des disques jaunes et rouges sur la carte.

Passer la souris dessus pour voir le nom de la station.

Cliquer dessus pour voir les observations et prévisions météorologiques.

Pour changer de carte: cliquez sur les boutons verts avec une croix noire pour zoomer, sur le bouton vert avec un tiret pour effectuer un zoom arrière, ou sur les flèches vertes pour les cartes adjacentes.


METAR-TAF: